sensor_id;sensor_type;location;lat;lon;timestamp;pressure;altitude;pressure_sealevel;temperature;humidity
61026;BME280;46911;32.650;-16.902;2023-07-20T00:01:15;102006.66;;;20.06;67.68
61026;BME280;46911;32.650;-16.902;2023-07-20T00:03:19;102018.25;;;20.09;67.92
61026;BME280;46911;32.650;-16.902;2023-07-20T00:05:26;102009.97;;;20.10;68.06
61026;BME280;46911;32.650;-16.902;2023-07-20T00:07:32;101991.22;;;19.97;68.36
61026;BME280;46911;32.650;-16.902;2023-07-20T00:09:35;102010.78;;;20.01;68.24
61026;BME280;46911;32.650;-16.902;2023-07-20T00:11:38;102000.47;;;19.95;68.51
61026;BME280;46911;32.650;-16.902;2023-07-20T00:13:40;102007.63;;;19.96;68.56
61026;BME280;46911;32.650;-16.902;2023-07-20T00:15:45;101998.88;;;19.92;68.69
61026;BME280;46911;32.650;-16.902;2023-07-20T00:17:46;101999.91;;;19.91;68.75
61026;BME280;46911;32.650;-16.902;2023-07-20T00:19:49;101995.03;;;19.85;68.87
61026;BME280;46911;32.650;-16.902;2023-07-20T00:21:50;101993.28;;;19.84;69.27
61026;BME280;46911;32.650;-16.902;2023-07-20T00:23:53;101995.75;;;19.87;69.39
61026;BME280;46911;32.650;-16.902;2023-07-20T00:25:54;101993.16;;;19.85;69.69
61026;BME280;46911;32.650;-16.902;2023-07-20T00:27:55;101982.75;;;19.81;69.35
61026;BME280;46911;32.650;-16.902;2023-07-20T00:29:58;101976.97;;;19.74;69.54
61026;BME280;46911;32.650;-16.902;2023-07-20T00:32:01;101977.81;;;19.74;69.03
61026;BME280;46911;32.650;-16.902;2023-07-20T00:34:04;101954.94;;;19.57;69.17
61026;BME280;46911;32.650;-16.902;2023-07-20T00:36:05;101996.06;;;19.72;69.23
61026;BME280;46911;32.650;-16.902;2023-07-20T00:38:09;101980.47;;;19.65;69.65
61026;BME280;46911;32.650;-16.902;2023-07-20T00:40:11;101991.03;;;19.68;69.50
61026;BME280;46911;32.650;-16.902;2023-07-20T00:42:12;101979.50;;;19.66;69.54
61026;BME280;46911;32.650;-16.902;2023-07-20T00:44:15;101983.31;;;19.63;69.48
61026;BME280;46911;32.650;-16.902;2023-07-20T00:46:16;101985.28;;;19.61;69.59
61026;BME280;46911;32.650;-16.902;2023-07-20T00:48:22;101982.88;;;19.58;69.77
61026;BME280;46911;32.650;-16.902;2023-07-20T00:50:24;101976.97;;;19.53;70.14
61026;BME280;46911;32.650;-16.902;2023-07-20T00:52:27;101981.28;;;19.55;70.07
61026;BME280;46911;32.650;-16.902;2023-07-20T00:54:28;101973.69;;;19.49;70.01
61026;BME280;46911;32.650;-16.902;2023-07-20T00:56:29;101979.56;;;19.54;69.99
61026;BME280;46911;32.650;-16.902;2023-07-20T00:58:32;101978.72;;;19.54;70.21
61026;BME280;46911;32.650;-16.902;2023-07-20T01:00:35;101971.72;;;19.51;69.96
61026;BME280;46911;32.650;-16.902;2023-07-20T01:02:36;101972.56;;;19.52;69.78
61026;BME280;46911;32.650;-16.902;2023-07-20T01:04:40;101956.25;;;19.42;69.96
61026;BME280;46911;32.650;-16.902;2023-07-20T01:06:57;101969.78;;;19.42;70.39
61026;BME280;46911;32.650;-16.902;2023-07-20T01:11:20;101967.13;;;19.52;70.34
61026;BME280;46911;32.650;-16.902;2023-07-20T01:13:23;101952.72;;;19.42;70.54
61026;BME280;46911;32.650;-16.902;2023-07-20T01:15:26;101964.97;;;19.46;70.67
61026;BME280;46911;32.650;-16.902;2023-07-20T01:17:30;101963.25;;;19.45;70.50
61026;BME280;46911;32.650;-16.902;2023-07-20T01:19:31;101958.22;;;19.40;70.72
61026;BME280;46911;32.650;-16.902;2023-07-20T01:21:42;101956.41;;;19.40;70.30
61026;BME280;46911;32.650;-16.902;2023-07-20T01:31:21;101974.88;;;19.35;70.70
61026;BME280;46911;32.650;-16.902;2023-07-20T01:33:24;101974.88;;;19.35;70.63
61026;BME280;46911;32.650;-16.902;2023-07-20T01:35:30;101961.34;;;19.35;70.39
61026;BME280;46911;32.650;-16.902;2023-07-20T01:37:33;101962.31;;;19.34;70.22
61026;BME280;46911;32.650;-16.902;2023-07-20T01:39:38;101961.34;;;19.35;70.17
61026;BME280;46911;32.650;-16.902;2023-07-20T01:41:39;101949.91;;;19.32;70.51
61026;BME280;46911;32.650;-16.902;2023-07-20T01:43:43;101961.63;;;19.32;70.59
61026;BME280;46911;32.650;-16.902;2023-07-20T01:45:44;101957.91;;;19.33;70.29
61026;BME280;46911;32.650;-16.902;2023-07-20T01:47:47;101956.44;;;19.29;70.37
61026;BME280;46911;32.650;-16.902;2023-07-20T01:49:53;101964.31;;;19.32;70.34
61026;BME280;46911;32.650;-16.902;2023-07-20T01:51:54;101949.72;;;19.23;70.59
61026;BME280;46911;32.650;-16.902;2023-07-20T01:53:54;101951.97;;;19.18;70.56
61026;BME280;46911;32.650;-16.902;2023-07-20T01:55:56;101959.69;;;19.23;70.90
61026;BME280;46911;32.650;-16.902;2023-07-20T01:58:00;101954.53;;;19.20;70.80
61026;BME280;46911;32.650;-16.902;2023-07-20T02:00:02;101957.38;;;19.18;71.13
61026;BME280;46911;32.650;-16.902;2023-07-20T02:02:14;101949.91;;;19.11;71.25
61026;BME280;46911;32.650;-16.902;2023-07-20T02:04:19;101950.38;;;19.16;71.27
61026;BME280;46911;32.650;-16.902;2023-07-20T02:06:21;101955.06;;;19.14;71.31
61026;BME280;46911;32.650;-16.902;2023-07-20T02:08:28;101943.66;;;19.10;71.29
61026;BME280;46911;32.650;-16.902;2023-07-20T02:10:31;101941.78;;;19.11;71.17
61026;BME280;46911;32.650;-16.902;2023-07-20T02:12:35;101944.50;;;19.11;71.60
61026;BME280;46911;32.650;-16.902;2023-07-20T02:14:38;101946.81;;;19.15;71.13
61026;BME280;46911;32.650;-16.902;2023-07-20T02:16:42;101963.53;;;19.20;71.58
61026;BME280;46911;32.650;-16.902;2023-07-20T02:18:43;101947.94;;;19.13;71.46
61026;BME280;46911;32.650;-16.902;2023-07-20T02:20:43;101962.78;;;19.18;71.33
61026;BME280;46911;32.650;-16.902;2023-07-20T02:22:45;101952.94;;;19.17;71.68
61026;BME280;46911;32.650;-16.902;2023-07-20T02:24:49;101964.56;;;19.29;71.46
61026;BME280;46911;32.650;-16.902;2023-07-20T02:26:50;101955.97;;;19.24;71.04
61026;BME280;46911;32.650;-16.902;2023-07-20T02:28:51;101959.38;;;19.37;71.00
61026;BME280;46911;32.650;-16.902;2023-07-20T02:30:52;101950.53;;;19.35;70.71
61026;BME280;46911;32.650;-16.902;2023-07-20T02:32:54;101961.25;;;19.47;70.53
61026;BME280;46911;32.650;-16.902;2023-07-20T02:34:56;101954.63;;;19.51;70.46
61026;BME280;46911;32.650;-16.902;2023-07-20T02:36:59;101948.34;;;19.50;70.51
61026;BME280;46911;32.650;-16.902;2023-07-20T02:39:01;101957.06;;;19.54;70.29
61026;BME280;46911;32.650;-16.902;2023-07-20T02:41:07;101962.94;;;19.59;70.33
61026;BME280;46911;32.650;-16.902;2023-07-20T02:43:08;101957.53;;;19.59;69.92
61026;BME280;46911;32.650;-16.902;2023-07-20T02:45:10;101954.94;;;19.57;70.14
61026;BME280;46911;32.650;-16.902;2023-07-20T02:47:13;101955.53;;;19.61;70.07
61026;BME280;46911;32.650;-16.902;2023-07-20T02:49:14;101949.31;;;19.49;70.13
61026;BME280;46911;32.650;-16.902;2023-07-20T02:51:15;101936.38;;;19.53;70.02
61026;BME280;46911;32.650;-16.902;2023-07-20T02:53:16;101946.09;;;19.55;70.12
61026;BME280;46911;32.650;-16.902;2023-07-20T02:55:20;101945.09;;;19.56;69.88
61026;BME280;46911;32.650;-16.902;2023-07-20T02:57:23;101929.41;;;19.50;69.46
61026;BME280;46911;32.650;-16.902;2023-07-20T02:59:24;101943.25;;;19.57;69.68
61026;BME280;46911;32.650;-16.902;2023-07-20T03:01:25;101935.41;;;19.54;69.66
61026;BME280;46911;32.650;-16.902;2023-07-20T03:03:32;101936.84;;;19.58;69.09
61026;BME280;46911;32.650;-16.902;2023-07-20T03:05:43;101933.16;;;19.59;69.35
61026;BME280;46911;32.650;-16.902;2023-07-20T03:07:46;101927.59;;;19.61;68.85
61026;BME280;46911;32.650;-16.902;2023-07-20T03:09:50;101913.47;;;19.57;68.79
61026;BME280;46911;32.650;-16.902;2023-07-20T03:11:54;101920.75;;;19.56;68.46
61026;BME280;46911;32.650;-16.902;2023-07-20T03:13:56;101920.34;;;19.61;68.45
61026;BME280;46911;32.650;-16.902;2023-07-20T03:15:57;101924.16;;;19.58;68.56
61026;BME280;46911;32.650;-16.902;2023-07-20T03:18:02;101920.19;;;19.63;67.96
61026;BME280;46911;32.650;-16.902;2023-07-20T03:20:08;101933.72;;;19.63;68.07
61026;BME280;46911;32.650;-16.902;2023-07-20T03:22:15;101930.03;;;19.64;68.12
61026;BME280;46911;32.650;-16.902;2023-07-20T03:24:18;101915.19;;;19.58;68.23
61026;BME280;46911;32.650;-16.902;2023-07-20T03:26:21;101925.38;;;19.66;68.04
61026;BME280;46911;32.650;-16.902;2023-07-20T03:28:23;101914.06;;;19.61;68.01
61026;BME280;46911;32.650;-16.902;2023-07-20T03:30:28;101916.97;;;19.69;68.08
61026;BME280;46911;32.650;-16.902;2023-07-20T03:32:29;101927.25;;;19.75;68.24
61026;BME280;46911;32.650;-16.902;2023-07-20T03:34:33;101927.50;;;19.72;68.07
61026;BME280;46911;32.650;-16.902;2023-07-20T03:36:34;101917.94;;;19.68;68.02
61026;BME280;46911;32.650;-16.902;2023-07-20T03:38:35;101907.53;;;19.63;67.98
61026;BME280;46911;32.650;-16.902;2023-07-20T03:40:38;101934.47;;;19.65;68.19
61026;BME280;46911;32.650;-16.902;2023-07-20T03:42:43;101914.47;;;19.56;68.28
61026;BME280;46911;32.650;-16.902;2023-07-20T03:44:43;101935.13;;;19.57;68.42
61026;BME280;46911;32.650;-16.902;2023-07-20T03:46:47;101924.72;;;19.52;68.54
61026;BME280;46911;32.650;-16.902;2023-07-20T03:48:48;101921.13;;;19.52;68.11
61026;BME280;46911;32.650;-16.902;2023-07-20T03:50:51;101934.41;;;19.55;68.14
61026;BME280;46911;32.650;-16.902;2023-07-20T03:52:54;101934.09;;;19.48;68.33
61026;BME280;46911;32.650;-16.902;2023-07-20T03:54:55;101933.63;;;19.43;68.72
61026;BME280;46911;32.650;-16.902;2023-07-20T03:56:56;101925.50;;;19.43;68.73
61026;BME280;46911;32.650;-16.902;2023-07-20T03:59:02;101936.19;;;19.45;68.58
61026;BME280;46911;32.650;-16.902;2023-07-20T04:01:05;101908.63;;;19.30;68.71
61026;BME280;46911;32.650;-16.902;2023-07-20T04:03:06;101915.41;;;19.24;68.88
61026;BME280;46911;32.650;-16.902;2023-07-20T04:05:09;101927.94;;;19.25;69.19
61026;BME280;46911;32.650;-16.902;2023-07-20T04:07:12;101920.03;;;19.12;69.46
61026;BME280;46911;32.650;-16.902;2023-07-20T04:09:19;101928.88;;;19.14;69.48
61026;BME280;46911;32.650;-16.902;2023-07-20T04:11:22;101922.94;;;19.20;69.54
61026;BME280;46911;32.650;-16.902;2023-07-20T04:13:25;101908.47;;;19.10;69.62
61026;BME280;46911;32.650;-16.902;2023-07-20T04:15:32;101910.00;;;19.03;69.68
61026;BME280;46911;32.650;-16.902;2023-07-20T04:17:36;101913.69;;;19.02;69.86
61026;BME280;46911;32.650;-16.902;2023-07-20T04:19:40;101911.38;;;18.97;69.86
61026;BME280;46911;32.650;-16.902;2023-07-20T04:21:43;101913.56;;;19.03;70.15
61026;BME280;46911;32.650;-16.902;2023-07-20T04:23:44;101905.72;;;19.00;70.26
61026;BME280;46911;32.650;-16.902;2023-07-20T04:25:46;101918.25;;;19.01;70.06
61026;BME280;46911;32.650;-16.902;2023-07-20T04:27:48;101912.72;;;19.03;70.27
61026;BME280;46911;32.650;-16.902;2023-07-20T04:29:48;101917.09;;;19.04;69.98
61026;BME280;46911;32.650;-16.902;2023-07-20T04:31:49;101922.16;;;19.09;69.91
61026;BME280;46911;32.650;-16.902;2023-07-20T04:33:53;101927.16;;;19.13;69.67
61026;BME280;46911;32.650;-16.902;2023-07-20T04:35:57;101932.44;;;19.15;69.59
61026;BME280;46911;32.650;-16.902;2023-07-20T04:38:03;101923.19;;;19.17;69.73
61026;BME280;46911;32.650;-16.902;2023-07-20T04:40:08;101924.41;;;19.24;69.39
61026;BME280;46911;32.650;-16.902;2023-07-20T04:42:12;101931.41;;;19.27;69.18
61026;BME280;46911;32.650;-16.902;2023-07-20T04:44:15;101896.09;;;19.07;69.09
61026;BME280;46911;32.650;-16.902;2023-07-20T04:46:16;101921.09;;;19.21;68.73
61026;BME280;46911;32.650;-16.902;2023-07-20T04:48:22;101918.38;;;19.21;68.72
61026;BME280;46911;32.650;-16.902;2023-07-20T04:50:27;101927.94;;;19.25;68.30
61026;BME280;46911;32.650;-16.902;2023-07-20T04:52:28;101915.06;;;19.17;68.31
61026;BME280;46911;32.650;-16.902;2023-07-20T04:54:32;101903.81;;;19.12;68.18
61026;BME280;46911;32.650;-16.902;2023-07-20T04:56:33;101925.13;;;19.05;68.04
61026;BME280;46911;32.650;-16.902;2023-07-20T04:58:35;101935.66;;;19.09;67.79
61026;BME280;46911;32.650;-16.902;2023-07-20T05:00:39;101924.66;;;19.00;67.73
61026;BME280;46911;32.650;-16.902;2023-07-20T05:02:41;101938.16;;;19.00;67.67
61026;BME280;46911;32.650;-16.902;2023-07-20T05:04:42;101928.13;;;18.91;67.35
61026;BME280;46911;32.650;-16.902;2023-07-20T05:06:44;101935.25;;;18.92;67.29
61026;BME280;46911;32.650;-16.902;2023-07-20T05:08:45;101937.34;;;18.88;67.12
61026;BME280;46911;32.650;-16.902;2023-07-20T05:10:46;101939.16;;;18.88;67.57
61026;BME280;46911;32.650;-16.902;2023-07-20T05:12:47;101927.88;;;18.83;67.47
61026;BME280;46911;32.650;-16.902;2023-07-20T05:14:48;101937.69;;;18.84;67.16
61026;BME280;46911;32.650;-16.902;2023-07-20T05:16:57;101924.72;;;18.78;67.04
61026;BME280;46911;32.650;-16.902;2023-07-20T05:19:00;101935.13;;;18.82;67.03
61026;BME280;46911;32.650;-16.902;2023-07-20T05:21:01;101923.25;;;18.73;67.29
61026;BME280;46911;32.650;-16.902;2023-07-20T05:23:02;101935.38;;;18.79;66.95
61026;BME280;46911;32.650;-16.902;2023-07-20T05:25:07;101926.19;;;18.70;66.66
61026;BME280;46911;32.650;-16.902;2023-07-20T05:27:13;101930.47;;;18.73;67.01
61026;BME280;46911;32.650;-16.902;2023-07-20T05:29:14;101921.78;;;18.69;66.82
61026;BME280;46911;32.650;-16.902;2023-07-20T05:31:15;101937.25;;;18.67;66.91
61026;BME280;46911;32.650;-16.902;2023-07-20T05:33:16;101931.84;;;18.67;67.22
61026;BME280;46911;32.650;-16.902;2023-07-20T05:35:17;101934.69;;;18.66;67.20
61026;BME280;46911;32.650;-16.902;2023-07-20T05:37:21;101941.63;;;18.80;67.25
61026;BME280;46911;32.650;-16.902;2023-07-20T05:39:22;101944.00;;;18.73;67.20
61026;BME280;46911;32.650;-16.902;2023-07-20T05:41:23;101945.34;;;18.79;67.11
61026;BME280;46911;32.650;-16.902;2023-07-20T05:43:23;101943.00;;;18.74;66.87
61026;BME280;46911;32.650;-16.902;2023-07-20T05:45:24;101948.56;;;18.72;67.35
61026;BME280;46911;32.650;-16.902;2023-07-20T05:47:28;101952.97;;;18.73;67.25
61026;BME280;46911;32.650;-16.902;2023-07-20T05:49:31;101953.81;;;18.74;67.26
61026;BME280;46911;32.650;-16.902;2023-07-20T05:51:35;101953.06;;;18.83;66.96
61026;BME280;46911;32.650;-16.902;2023-07-20T05:53:39;101936.50;;;18.77;66.98
61026;BME280;46911;32.650;-16.902;2023-07-20T05:55:40;101955.03;;;18.81;67.05
61026;BME280;46911;32.650;-16.902;2023-07-20T05:57:41;101949.16;;;18.76;67.06
61026;BME280;46911;32.650;-16.902;2023-07-20T05:59:43;101949.41;;;18.73;67.19
61026;BME280;46911;32.650;-16.902;2023-07-20T06:01:49;101953.56;;;18.77;67.45
61026;BME280;46911;32.650;-16.902;2023-07-20T06:03:50;101953.69;;;18.76;67.77
61026;BME280;46911;32.650;-16.902;2023-07-20T06:05:59;101951.25;;;18.72;67.73
61026;BME280;46911;32.650;-16.902;2023-07-20T06:08:00;101958.38;;;18.73;67.88
61026;BME280;46911;32.650;-16.902;2023-07-20T06:10:05;101942.53;;;18.69;68.07
61026;BME280;46911;32.650;-16.902;2023-07-20T06:12:07;101955.56;;;18.75;68.48
61026;BME280;46911;32.650;-16.902;2023-07-20T06:14:08;101945.84;;;18.72;68.24
61026;BME280;46911;32.650;-16.902;2023-07-20T06:16:09;101943.91;;;18.63;68.32
61026;BME280;46911;32.650;-16.902;2023-07-20T06:18:13;101953.47;;;18.67;68.92
61026;BME280;46911;32.650;-16.902;2023-07-20T06:20:14;101942.31;;;18.61;69.02
61026;BME280;46911;32.650;-16.902;2023-07-20T06:22:15;101961.81;;;18.76;68.77
61026;BME280;46911;32.650;-16.902;2023-07-20T06:24:18;101956.66;;;18.72;68.90
61026;BME280;46911;32.650;-16.902;2023-07-20T06:26:19;101953.97;;;18.72;68.83
61026;BME280;46911;32.650;-16.902;2023-07-20T06:28:21;101941.28;;;18.73;69.04
61026;BME280;46911;32.650;-16.902;2023-07-20T06:30:22;101956.03;;;18.80;69.11
61026;BME280;46911;32.650;-16.902;2023-07-20T06:32:23;101964.13;;;18.80;69.26
61026;BME280;46911;32.650;-16.902;2023-07-20T06:34:24;101955.41;;;18.77;69.57
61026;BME280;46911;32.650;-16.902;2023-07-20T06:36:25;101963.03;;;18.83;69.71
61026;BME280;46911;32.650;-16.902;2023-07-20T06:38:29;101959.31;;;18.84;69.69
61026;BME280;46911;32.650;-16.902;2023-07-20T06:40:34;101970.03;;;18.85;70.03
61026;BME280;46911;32.650;-16.902;2023-07-20T06:42:35;101954.19;;;18.81;70.15
61026;BME280;46911;32.650;-16.902;2023-07-20T06:44:36;101963.47;;;18.88;69.88
61026;BME280;46911;32.650;-16.902;2023-07-20T06:46:39;101956.88;;;18.92;70.12
61026;BME280;46911;32.650;-16.902;2023-07-20T06:48:40;101947.75;;;18.93;69.81
61026;BME280;46911;32.650;-16.902;2023-07-20T06:50:42;101959.53;;;19.03;69.94
61026;BME280;46911;32.650;-16.902;2023-07-20T06:52:45;101956.47;;;18.97;69.63
61026;BME280;46911;32.650;-16.902;2023-07-20T06:54:53;101957.22;;;18.99;69.95
61026;BME280;46911;32.650;-16.902;2023-07-20T06:56:56;101968.38;;;19.05;70.10
61026;BME280;46911;32.650;-16.902;2023-07-20T06:58:58;101972.16;;;19.14;69.82
61026;BME280;46911;32.650;-16.902;2023-07-20T07:00:58;101970.56;;;19.12;69.50
61026;BME280;46911;32.650;-16.902;2023-07-20T07:03:02;101975.13;;;19.11;69.77
61026;BME280;46911;32.650;-16.902;2023-07-20T07:05:04;101973.25;;;19.12;69.99
61026;BME280;46911;32.650;-16.902;2023-07-20T07:07:07;101978.53;;;19.13;69.75
61026;BME280;46911;32.650;-16.902;2023-07-20T07:09:10;101972.88;;;19.16;69.40
61026;BME280;46911;32.650;-16.902;2023-07-20T07:11:11;101980.09;;;19.27;69.47
61026;BME280;46911;32.650;-16.902;2023-07-20T07:13:15;101981.13;;;19.36;69.24
61026;BME280;46911;32.650;-16.902;2023-07-20T07:15:16;101984.91;;;19.45;68.72
61026;BME280;46911;32.650;-16.902;2023-07-20T07:17:17;101985.19;;;19.42;68.86
61026;BME280;46911;32.650;-16.902;2023-07-20T07:19:18;101977.25;;;19.50;68.29
61026;BME280;46911;32.650;-16.902;2023-07-20T07:21:21;101981.13;;;19.57;68.44
61026;BME280;46911;32.650;-16.902;2023-07-20T07:23:29;101973.28;;;19.54;68.46
61026;BME280;46911;32.650;-16.902;2023-07-20T07:25:30;101979.88;;;19.61;68.16
61026;BME280;46911;32.650;-16.902;2023-07-20T07:27:32;101986.50;;;19.68;68.22
61026;BME280;46911;32.650;-16.902;2023-07-20T07:29:36;101975.38;;;19.71;67.99
61026;BME280;46911;32.650;-16.902;2023-07-20T07:31:39;101966.66;;;19.68;68.06
61026;BME280;46911;32.650;-16.902;2023-07-20T07:33:43;101973.84;;;19.79;67.80
61026;BME280;46911;32.650;-16.902;2023-07-20T07:35:46;101977.06;;;19.84;67.75
61026;BME280;46911;32.650;-16.902;2023-07-20T07:37:47;101976.53;;;19.90;67.37
61026;BME280;46911;32.650;-16.902;2023-07-20T07:39:48;101977.69;;;19.97;67.17
61026;BME280;46911;32.650;-16.902;2023-07-20T07:41:51;101987.25;;;20.01;66.99
61026;BME280;46911;32.650;-16.902;2023-07-20T07:43:54;101966.72;;;19.99;67.07
61026;BME280;46911;32.650;-16.902;2023-07-20T07:45:55;101984.00;;;20.07;66.92
61026;BME280;46911;32.650;-16.902;2023-07-20T07:47:56;101983.47;;;20.14;67.07
61026;BME280;46911;32.650;-16.902;2023-07-20T07:50:02;101986.75;;;20.17;66.90
61026;BME280;46911;32.650;-16.902;2023-07-20T07:52:03;101979.50;;;20.18;66.83
61026;BME280;46911;32.650;-16.902;2023-07-20T07:54:04;101986.38;;;20.32;66.60
61026;BME280;46911;32.650;-16.902;2023-07-20T07:56:07;101994.81;;;20.38;66.29
61026;BME280;46911;32.650;-16.902;2023-07-20T07:58:08;101989.84;;;20.44;66.27
61026;BME280;46911;32.650;-16.902;2023-07-20T08:00:13;101984.56;;;20.42;66.22
61026;BME280;46911;32.650;-16.902;2023-07-20T08:02:14;101969.59;;;20.38;65.60
61026;BME280;46911;32.650;-16.902;2023-07-20T08:04:16;101998.59;;;20.57;66.09
61026;BME280;46911;32.650;-16.902;2023-07-20T08:06:20;102005.88;;;20.66;65.58
61026;BME280;46911;32.650;-16.902;2023-07-20T08:08:22;102008.34;;;20.69;65.64
61026;BME280;46911;32.650;-16.902;2023-07-20T08:10:23;101998.09;;;20.73;65.69
61026;BME280;46911;32.650;-16.902;2023-07-20T08:12:24;102003.81;;;20.80;65.56
61026;BME280;46911;32.650;-16.902;2023-07-20T08:14:29;101993.53;;;20.83;65.15
61026;BME280;46911;32.650;-16.902;2023-07-20T08:16:30;101997.53;;;20.89;65.06
61026;BME280;46911;32.650;-16.902;2023-07-20T08:18:33;102000.69;;;20.94;65.31
61026;BME280;46911;32.650;-16.902;2023-07-20T08:20:37;102000.00;;;21.02;65.11
61026;BME280;46911;32.650;-16.902;2023-07-20T08:22:38;101996.25;;;21.03;64.58
61026;BME280;46911;32.650;-16.902;2023-07-20T08:24:40;102001.72;;;21.13;64.83
61026;BME280;46911;32.650;-16.902;2023-07-20T08:26:41;101998.41;;;21.19;64.52
61026;BME280;46911;32.650;-16.902;2023-07-20T08:28:44;101991.84;;;21.21;66.00
61026;BME280;46911;32.650;-16.902;2023-07-20T08:30:47;101975.84;;;21.18;66.14
61026;BME280;46911;32.650;-16.902;2023-07-20T08:32:49;102009.94;;;21.40;65.67
61026;BME280;46911;32.650;-16.902;2023-07-20T08:34:52;101989.81;;;21.43;65.97
61026;BME280;46911;32.650;-16.902;2023-07-20T08:36:53;101996.97;;;21.44;65.40
61026;BME280;46911;32.650;-16.902;2023-07-20T08:38:58;101997.09;;;21.43;64.64
61026;BME280;46911;32.650;-16.902;2023-07-20T08:41:06;102019.13;;;21.59;65.01
61026;BME280;46911;32.650;-16.902;2023-07-20T08:43:10;102018.53;;;21.65;64.18
61026;BME280;46911;32.650;-16.902;2023-07-20T08:45:12;102009.56;;;21.65;64.96
61026;BME280;46911;32.650;-16.902;2023-07-20T08:47:17;102021.22;;;21.75;66.15
61026;BME280;46911;32.650;-16.902;2023-07-20T08:49:21;102010.22;;;21.77;66.10
61026;BME280;46911;32.650;-16.902;2023-07-20T08:51:24;102020.66;;;21.81;66.25
61026;BME280;46911;32.650;-16.902;2023-07-20T08:53:27;102022.22;;;21.84;65.67
61026;BME280;46911;32.650;-16.902;2023-07-20T08:55:32;102020.50;;;21.83;65.73
61026;BME280;46911;32.650;-16.902;2023-07-20T08:57:38;102018.31;;;21.96;65.47
61026;BME280;46911;32.650;-16.902;2023-07-20T08:59:43;102021.75;;;21.98;65.84
61026;BME280;46911;32.650;-16.902;2023-07-20T09:01:46;102023.44;;;21.99;65.83
61026;BME280;46911;32.650;-16.902;2023-07-20T09:03:47;102009.03;;;21.99;65.65
61026;BME280;46911;32.650;-16.902;2023-07-20T09:05:50;102026.91;;;22.01;65.35
61026;BME280;46911;32.650;-16.902;2023-07-20T09:07:52;102018.38;;;21.86;66.79
61026;BME280;46911;32.650;-16.902;2023-07-20T09:09:57;102029.75;;;22.00;65.62
61026;BME280;46911;32.650;-16.902;2023-07-20T09:12:15;102031.22;;;21.94;66.09
61026;BME280;46911;32.650;-16.902;2023-07-20T09:14:19;102034.03;;;22.02;65.75
61026;BME280;46911;32.650;-16.902;2023-07-20T09:16:19;102037.44;;;22.14;65.12
61026;BME280;46911;32.650;-16.902;2023-07-20T09:18:25;102032.50;;;22.37;63.68
61026;BME280;46911;32.650;-16.902;2023-07-20T09:20:32;102032.78;;;22.90;62.32
61026;BME280;46911;32.650;-16.902;2023-07-20T09:22:34;102015.78;;;22.88;62.32
61026;BME280;46911;32.650;-16.902;2023-07-20T09:24:35;102025.00;;;22.95;62.59
61026;BME280;46911;32.650;-16.902;2023-07-20T09:26:41;102028.78;;;23.30;61.12
61026;BME280;46911;32.650;-16.902;2023-07-20T09:28:50;102024.22;;;23.57;60.26
61026;BME280;46911;32.650;-16.902;2023-07-20T09:30:53;102032.03;;;23.52;59.95
61026;BME280;46911;32.650;-16.902;2023-07-20T09:32:54;102020.13;;;23.53;59.96
61026;BME280;46911;32.650;-16.902;2023-07-20T09:34:55;102016.69;;;23.95;59.57
61026;BME280;46911;32.650;-16.902;2023-07-20T09:36:59;102017.34;;;23.89;59.36
61026;BME280;46911;32.650;-16.902;2023-07-20T09:39:01;102015.31;;;24.60;58.30
61026;BME280;46911;32.650;-16.902;2023-07-20T09:41:07;102030.63;;;25.29;56.30
61026;BME280;46911;32.650;-16.902;2023-07-20T09:43:09;102020.41;;;25.64;55.42
61026;BME280;46911;32.650;-16.902;2023-07-20T09:45:13;102026.72;;;25.72;55.06
61026;BME280;46911;32.650;-16.902;2023-07-20T09:47:21;102024.38;;;25.36;55.64
61026;BME280;46911;32.650;-16.902;2023-07-20T09:49:25;102013.41;;;25.28;55.66
61026;BME280;46911;32.650;-16.902;2023-07-20T09:51:26;102006.38;;;25.09;55.13
61026;BME280;46911;32.650;-16.902;2023-07-20T09:53:28;102017.47;;;25.07;54.89
61026;BME280;46911;32.650;-16.902;2023-07-20T09:55:31;102029.94;;;25.10;56.28
61026;BME280;46911;32.650;-16.902;2023-07-20T09:57:34;102024.84;;;25.40;54.12
61026;BME280;46911;32.650;-16.902;2023-07-20T09:59:36;102027.94;;;25.37;54.11
61026;BME280;46911;32.650;-16.902;2023-07-20T10:01:41;102020.38;;;25.06;55.03
61026;BME280;46911;32.650;-16.902;2023-07-20T10:03:44;102019.91;;;25.68;53.34
61026;BME280;46911;32.650;-16.902;2023-07-20T10:05:54;102015.13;;;25.54;52.70
61026;BME280;46911;32.650;-16.902;2023-07-20T10:07:58;102009.97;;;25.76;52.17
61026;BME280;46911;32.650;-16.902;2023-07-20T10:10:02;102020.59;;;25.46;52.78
61026;BME280;46911;32.650;-16.902;2023-07-20T10:12:04;102021.09;;;25.66;53.31
61026;BME280;46911;32.650;-16.902;2023-07-20T10:14:09;102021.91;;;25.91;52.66
61026;BME280;46911;32.650;-16.902;2023-07-20T10:16:29;102015.97;;;25.79;53.14
61026;BME280;46911;32.650;-16.902;2023-07-20T10:18:55;102026.34;;;26.48;51.79
61026;BME280;46911;32.650;-16.902;2023-07-20T10:21:00;102015.66;;;26.30;50.88
61026;BME280;46911;32.650;-16.902;2023-07-20T10:23:03;102029.44;;;25.81;52.24
61026;BME280;46911;32.650;-16.902;2023-07-20T10:25:08;102013.91;;;25.73;52.03
61026;BME280;46911;32.650;-16.902;2023-07-20T10:27:09;102024.13;;;25.87;52.63
61026;BME280;46911;32.650;-16.902;2023-07-20T10:29:12;102029.75;;;26.11;50.85
61026;BME280;46911;32.650;-16.902;2023-07-20T10:31:14;102038.06;;;26.26;52.09
61026;BME280;46911;32.650;-16.902;2023-07-20T10:33:19;102029.31;;;26.38;51.20
61026;BME280;46911;32.650;-16.902;2023-07-20T10:35:21;102034.88;;;26.05;52.31
61026;BME280;46911;32.650;-16.902;2023-07-20T10:39:55;102036.44;;;26.48;51.36